createdAt,value
2023-05-19T00:01:21.660Z,1.95
2023-05-19T00:03:24.719Z,1.90
2023-05-19T00:05:28.026Z,2.17
2023-05-19T00:07:32.357Z,1.77
2023-05-19T00:09:35.356Z,2.00
2023-05-19T00:11:38.612Z,1.92
2023-05-19T00:13:41.317Z,1.80
2023-05-19T00:15:44.345Z,1.70
2023-05-19T00:17:48.737Z,1.85
2023-05-19T00:19:52.502Z,1.58
2023-05-19T00:21:55.302Z,2.00
2023-05-19T00:23:58.334Z,1.73
2023-05-19T00:26:00.957Z,1.73
2023-05-19T00:28:03.988Z,1.77
2023-05-19T00:30:07.439Z,1.95
2023-05-19T00:32:10.550Z,1.70
2023-05-19T00:34:14.602Z,1.60
2023-05-19T00:36:17.339Z,1.70
2023-05-19T00:38:20.112Z,1.70
2023-05-19T00:40:23.311Z,1.85
2023-05-19T00:42:25.987Z,1.70
2023-05-19T00:44:28.633Z,1.90
2023-05-19T00:46:31.384Z,1.88
2023-05-19T00:48:34.148Z,1.70
2023-05-19T00:50:38.255Z,1.48
2023-05-19T00:52:40.995Z,1.95
2023-05-19T00:54:45.983Z,1.80
2023-05-19T00:56:49.847Z,1.88
2023-05-19T00:58:52.912Z,1.67
2023-05-19T01:00:56.065Z,1.75
2023-05-19T01:02:59.241Z,1.60
2023-05-19T01:05:02.324Z,1.75
2023-05-19T01:07:06.421Z,1.40
2023-05-19T01:09:09.162Z,2.05
2023-05-19T01:11:11.821Z,1.77
2023-05-19T01:13:14.639Z,1.80
2023-05-19T01:15:17.336Z,1.85
2023-05-19T01:17:23.205Z,1.90
2023-05-19T01:19:33.000Z,1.85
2023-05-19T01:21:54.100Z,1.70
2023-05-19T01:24:03.787Z,1.92
2023-05-19T01:26:29.260Z,1.70
2023-05-19T01:28:52.718Z,1.70
2023-05-19T01:30:57.521Z,2.00
2023-05-19T01:33:02.415Z,1.40
2023-05-19T01:35:05.923Z,1.70
2023-05-19T01:37:08.961Z,1.50
2023-05-19T01:39:11.985Z,1.83
2023-05-19T01:41:15.771Z,1.60
2023-05-19T01:43:19.718Z,2.10
2023-05-19T01:45:22.925Z,1.80
2023-05-19T01:47:27.140Z,1.77
2023-05-19T01:49:29.912Z,1.50
2023-05-19T01:51:32.762Z,2.30
2023-05-19T01:53:35.663Z,1.88
2023-05-19T01:55:44.302Z,1.83
2023-05-19T01:57:50.775Z,2.10
2023-05-19T02:00:00.006Z,1.70
2023-05-19T02:02:04.521Z,1.92
2023-05-19T02:04:14.133Z,1.95
2023-05-19T02:06:22.406Z,1.60
2023-05-19T02:08:28.174Z,1.70
2023-05-19T02:10:31.851Z,1.70
2023-05-19T02:12:36.252Z,1.52
2023-05-19T02:14:41.404Z,1.80
2023-05-19T02:16:46.190Z,1.50
2023-05-19T02:18:49.076Z,2.08
2023-05-19T02:20:53.092Z,1.88
2023-05-19T02:22:55.802Z,1.63
2023-05-19T02:24:58.451Z,1.80
2023-05-19T02:27:01.068Z,1.42
2023-05-19T02:29:03.726Z,1.85
2023-05-19T02:31:08.880Z,1.63
2023-05-19T02:33:12.194Z,1.90
2023-05-19T02:35:15.297Z,1.70
2023-05-19T02:37:19.415Z,1.65
2023-05-19T02:39:22.102Z,1.70
2023-05-19T02:41:24.825Z,1.92
2023-05-19T02:43:27.533Z,1.40
2023-05-19T02:45:30.201Z,1.70
2023-05-19T02:47:34.606Z,1.80
2023-05-19T02:49:39.112Z,1.50
2023-05-19T02:51:42.077Z,1.70
2023-05-19T02:53:46.064Z,1.60
2023-05-19T02:55:48.690Z,1.65
2023-05-19T02:57:51.336Z,1.73
2023-05-19T02:59:54.055Z,1.80
2023-05-19T03:01:57.686Z,1.70
2023-05-19T03:04:00.826Z,2.03
2023-05-19T03:06:03.663Z,1.80
2023-05-19T03:08:06.316Z,1.77
2023-05-19T03:10:10.950Z,1.67
2023-05-19T03:12:13.608Z,1.58
2023-05-19T03:14:16.461Z,1.70
2023-05-19T03:16:19.601Z,1.60
2023-05-19T03:18:25.691Z,1.65
2023-05-19T03:20:30.873Z,1.70
2023-05-19T03:22:34.166Z,1.60
2023-05-19T03:24:36.875Z,1.98
2023-05-19T03:26:41.011Z,2.00
2023-05-19T03:28:43.645Z,1.80
2023-05-19T03:30:46.323Z,1.63
2023-05-19T03:32:49.141Z,1.50
2023-05-19T03:34:51.792Z,1.70
2023-05-19T03:36:54.537Z,1.70
2023-05-19T03:38:57.165Z,1.75
2023-05-19T03:40:59.773Z,1.88
2023-05-19T03:43:03.828Z,1.90
2023-05-19T03:45:09.751Z,1.60
2023-05-19T03:47:12.675Z,1.60
2023-05-19T03:49:15.353Z,1.90
2023-05-19T03:51:18.042Z,1.75
2023-05-19T03:53:20.900Z,1.60
2023-05-19T03:55:24.162Z,1.70
2023-05-19T03:57:26.935Z,1.42
2023-05-19T03:59:31.312Z,1.95
2023-05-19T04:01:34.132Z,1.60
2023-05-19T04:03:36.848Z,1.92
2023-05-19T04:05:39.987Z,2.10
2023-05-19T04:07:43.020Z,1.50
2023-05-19T04:09:46.229Z,1.77
2023-05-19T04:11:48.851Z,1.40
2023-05-19T04:13:51.480Z,1.60
2023-05-19T04:15:55.988Z,1.73
2023-05-19T04:17:58.751Z,1.50
2023-05-19T04:20:01.387Z,1.60
2023-05-19T04:22:04.089Z,1.85
2023-05-19T04:24:07.288Z,1.63
2023-05-19T04:26:09.908Z,1.98
2023-05-19T04:28:13.005Z,1.73
2023-05-19T04:30:22.225Z,1.83
2023-05-19T04:32:26.415Z,1.67
2023-05-19T04:34:29.082Z,1.65
2023-05-19T04:36:31.775Z,1.73
2023-05-19T04:38:34.428Z,1.60
2023-05-19T04:40:37.219Z,1.58
2023-05-19T04:42:41.400Z,2.00
2023-05-19T04:44:44.097Z,1.60
2023-05-19T04:46:46.863Z,1.88
2023-05-19T04:48:51.253Z,1.70
2023-05-19T04:50:54.192Z,1.77
2023-05-19T04:52:59.024Z,1.90
2023-05-19T04:55:01.730Z,2.13
2023-05-19T04:57:04.554Z,1.83
2023-05-19T04:59:07.192Z,1.55
2023-05-19T05:01:10.596Z,1.77
2023-05-19T05:03:15.258Z,2.08
2023-05-19T05:05:19.397Z,1.83
2023-05-19T05:07:22.783Z,2.00
2023-05-19T05:09:25.472Z,1.70
2023-05-19T05:11:28.539Z,1.77
2023-05-19T05:13:31.445Z,1.70
2023-05-19T05:15:35.549Z,1.83
2023-05-19T05:17:38.510Z,1.90
2023-05-19T05:19:41.352Z,2.15
2023-05-19T05:21:45.904Z,1.50
2023-05-19T05:23:48.887Z,1.73
2023-05-19T05:25:51.867Z,1.40
2023-05-19T05:27:54.553Z,1.83
2023-05-19T05:29:59.125Z,1.77
2023-05-19T05:32:02.035Z,1.50
2023-05-19T05:34:04.870Z,1.80
2023-05-19T05:36:07.916Z,1.80
2023-05-19T05:38:12.451Z,1.77
2023-05-19T05:40:15.338Z,1.63
2023-05-19T05:42:18.344Z,1.55
2023-05-19T05:44:20.963Z,2.00
2023-05-19T05:46:23.638Z,1.85
2023-05-19T05:48:26.844Z,1.70
2023-05-19T05:50:30.327Z,1.70
2023-05-19T05:52:33.537Z,1.50
2023-05-19T05:54:38.679Z,1.83
2023-05-19T05:56:41.782Z,1.83
2023-05-19T05:58:44.648Z,1.98
2023-05-19T06:00:48.639Z,1.70
2023-05-19T06:02:51.918Z,1.73
2023-05-19T06:04:54.847Z,1.80
2023-05-19T06:07:00.871Z,1.77
2023-05-19T06:09:03.542Z,1.90
2023-05-19T06:11:09.115Z,1.88
2023-05-19T06:13:12.041Z,1.77
2023-05-19T06:15:15.003Z,1.60
2023-05-19T06:17:17.693Z,1.73
2023-05-19T06:19:20.940Z,1.70
2023-05-19T06:21:23.660Z,1.63
2023-05-19T06:23:27.022Z,1.80
2023-05-19T06:25:29.876Z,1.73
2023-05-19T06:27:34.871Z,1.77
2023-05-19T06:29:37.754Z,1.80
2023-05-19T06:31:40.608Z,1.73
2023-05-19T06:33:43.213Z,2.00
2023-05-19T06:35:45.901Z,1.80
2023-05-19T06:37:48.724Z,1.73
2023-05-19T06:39:53.313Z,1.88
2023-05-19T06:41:56.190Z,2.10
2023-05-19T06:44:00.277Z,1.60
2023-05-19T06:46:03.002Z,1.75
2023-05-19T06:48:05.914Z,2.17
2023-05-19T06:50:08.922Z,1.80
2023-05-19T06:52:12.314Z,1.50
2023-05-19T06:54:16.167Z,1.65
2023-05-19T06:56:19.150Z,1.85
2023-05-19T06:58:21.753Z,1.88
2023-05-19T07:00:25.922Z,1.63
2023-05-19T07:02:28.640Z,1.73
2023-05-19T07:04:31.365Z,2.00
2023-05-19T07:06:34.042Z,1.52
2023-05-19T07:08:37.379Z,1.50
2023-05-19T07:10:40.377Z,1.92
2023-05-19T07:12:43.085Z,1.77
2023-05-19T07:14:45.807Z,1.60
2023-05-19T07:16:49.974Z,1.40
2023-05-19T07:18:52.734Z,1.70
2023-05-19T07:20:55.479Z,1.90
2023-05-19T07:22:58.103Z,1.70
2023-05-19T07:25:00.786Z,1.95
2023-05-19T07:27:03.608Z,1.73
2023-05-19T07:29:06.523Z,1.55
2023-05-19T07:31:09.359Z,1.75
2023-05-19T07:33:13.658Z,1.75
2023-05-19T07:35:16.338Z,1.67
2023-05-19T07:37:18.992Z,1.58
2023-05-19T07:39:21.680Z,1.80
2023-05-19T07:41:24.332Z,1.70
2023-05-19T07:43:27.128Z,2.03
2023-05-19T07:45:29.859Z,1.70
2023-05-19T07:47:32.639Z,1.60
2023-05-19T07:49:36.816Z,1.60
2023-05-19T07:51:39.726Z,1.92
2023-05-19T07:53:42.448Z,2.00
2023-05-19T07:55:45.150Z,1.88
2023-05-19T07:57:47.813Z,1.85
2023-05-19T07:59:50.692Z,1.63
2023-05-19T08:01:53.494Z,1.50
2023-05-19T08:03:56.144Z,1.70
2023-05-19T08:06:00.261Z,1.77
2023-05-19T08:08:03.226Z,1.60
2023-05-19T08:10:06.186Z,1.70
2023-05-19T08:12:08.937Z,1.90
2023-05-19T08:14:11.603Z,2.20
2023-05-19T08:16:14.434Z,1.48
2023-05-19T08:18:17.083Z,1.70
2023-05-19T08:20:20.348Z,1.50
2023-05-19T08:22:24.486Z,2.10
2023-05-19T08:24:29.420Z,1.85
2023-05-19T08:26:32.186Z,2.17
2023-05-19T08:28:34.750Z,2.08
2023-05-19T08:30:37.981Z,1.77
2023-05-19T08:32:40.817Z,1.98
2023-05-19T08:34:43.652Z,2.05
2023-05-19T08:36:47.629Z,1.80
2023-05-19T08:38:51.714Z,2.20
2023-05-19T08:40:54.582Z,1.98
2023-05-19T08:42:57.247Z,1.90
2023-05-19T08:45:00.061Z,2.00
2023-05-19T08:47:04.990Z,1.80
2023-05-19T08:49:12.393Z,2.00
2023-05-19T08:51:18.995Z,1.80
2023-05-19T08:55:37.845Z,2.05
2023-05-19T08:57:40.900Z,1.48
2023-05-19T08:59:44.403Z,1.75
2023-05-19T09:01:47.329Z,1.80
2023-05-19T09:03:50.688Z,2.05
2023-05-19T09:05:53.678Z,1.73
2023-05-19T09:07:57.131Z,1.70
2023-05-19T09:10:00.915Z,1.90
2023-05-19T09:12:05.140Z,1.90
2023-05-19T09:14:07.750Z,1.77
2023-05-19T09:16:10.568Z,2.22
2023-05-19T09:18:13.848Z,1.60
2023-05-19T09:20:17.768Z,1.80
2023-05-19T09:22:20.641Z,1.90
2023-05-19T09:24:26.551Z,1.85
2023-05-19T09:26:37.262Z,2.10
2023-05-19T09:28:41.388Z,1.85
2023-05-19T09:30:44.118Z,1.90
2023-05-19T09:32:49.980Z,1.70
2023-05-19T09:34:55.812Z,2.15
2023-05-19T09:36:59.867Z,1.67
2023-05-19T09:39:02.580Z,1.90
2023-05-19T09:41:05.938Z,1.90
2023-05-19T09:43:08.999Z,2.22
2023-05-19T09:45:13.500Z,2.25
2023-05-19T09:47:16.858Z,1.98
2023-05-19T09:49:20.516Z,1.98
2023-05-19T09:51:23.289Z,1.90
2023-05-19T09:53:26.287Z,1.90
2023-05-19T09:55:30.133Z,2.03
2023-05-19T09:57:35.970Z,2.05
2023-05-19T09:59:39.126Z,2.30
2023-05-19T10:01:46.454Z,1.98
2023-05-19T10:03:49.184Z,1.92
2023-05-19T10:05:53.107Z,2.20
2023-05-19T10:07:56.535Z,1.85
2023-05-19T10:09:59.515Z,2.10
2023-05-19T10:12:03.562Z,1.90
2023-05-19T10:14:06.572Z,2.00
2023-05-19T10:16:10.539Z,1.70
2023-05-19T10:18:16.995Z,2.10
2023-05-19T10:20:19.777Z,1.90
2023-05-19T10:22:22.615Z,1.73
2023-05-19T10:24:25.456Z,2.00
2023-05-19T10:26:28.856Z,1.58
2023-05-19T10:28:35.772Z,1.92
2023-05-19T10:30:40.784Z,2.13
2023-05-19T10:32:45.150Z,1.70
2023-05-19T10:35:05.830Z,1.95
2023-05-19T10:37:13.214Z,1.60
2023-05-19T10:39:18.305Z,1.63
2023-05-19T10:41:26.037Z,1.80
2023-05-19T10:43:37.291Z,1.70
2023-05-19T10:45:43.006Z,1.75
2023-05-19T10:47:46.037Z,1.77
2023-05-19T10:49:49.086Z,2.00
2023-05-19T10:51:53.157Z,1.85
2023-05-19T10:53:58.739Z,1.80
2023-05-19T10:56:03.657Z,1.73
2023-05-19T10:58:06.408Z,1.40
2023-05-19T11:00:27.942Z,1.83
2023-05-19T11:02:38.176Z,1.48
2023-05-19T11:04:41.314Z,1.60
2023-05-19T11:06:51.782Z,1.98
2023-05-19T11:08:55.548Z,2.03
2023-05-19T11:11:12.810Z,1.98
2023-05-19T11:13:22.994Z,1.73
2023-05-19T11:15:27.563Z,1.90
2023-05-19T11:17:30.663Z,1.70
2023-05-19T11:19:35.629Z,1.60
2023-05-19T11:21:49.088Z,1.70
2023-05-19T11:23:52.255Z,1.80
2023-05-19T11:25:55.119Z,2.15
2023-05-19T11:27:59.482Z,1.70
2023-05-19T11:30:05.394Z,1.85
2023-05-19T11:32:08.526Z,1.90
2023-05-19T11:34:11.354Z,1.67
2023-05-19T11:36:16.649Z,1.70
2023-05-19T11:38:19.647Z,1.83
2023-05-19T11:40:24.323Z,2.13
2023-05-19T11:42:27.173Z,1.70
2023-05-19T11:44:31.645Z,1.88
2023-05-19T11:46:34.380Z,2.00
2023-05-19T11:48:37.233Z,1.75
2023-05-19T11:50:41.864Z,2.35
2023-05-19T11:52:45.707Z,2.25
2023-05-19T11:54:49.289Z,2.13
2023-05-19T11:56:52.038Z,2.33
2023-05-19T11:58:54.664Z,2.10
2023-05-19T12:00:58.745Z,2.20
2023-05-19T12:03:01.991Z,2.20
2023-05-19T12:05:04.773Z,2.60
2023-05-19T12:07:07.483Z,2.28
2023-05-19T12:09:10.161Z,1.88
2023-05-19T12:11:17.989Z,2.03
2023-05-19T12:13:22.591Z,2.58
2023-05-19T12:15:26.130Z,2.40
2023-05-19T12:17:30.274Z,2.50
2023-05-19T12:19:33.145Z,2.47
2023-05-19T12:21:36.223Z,3.03
2023-05-19T12:23:40.098Z,2.90
2023-05-19T12:25:42.893Z,2.47
2023-05-19T12:27:46.076Z,3.30
2023-05-19T12:29:50.562Z,2.53
2023-05-19T12:31:53.786Z,2.55
2023-05-19T12:33:58.123Z,2.40
2023-05-19T12:36:00.950Z,2.30
2023-05-19T12:38:03.904Z,2.33
2023-05-19T12:40:07.330Z,2.22
2023-05-19T12:42:10.789Z,2.65
2023-05-19T12:44:16.706Z,2.55
2023-05-19T12:46:20.618Z,2.10
2023-05-19T12:48:23.900Z,1.98
2023-05-19T12:50:32.851Z,2.58
2023-05-19T12:52:36.473Z,2.00
2023-05-19T12:54:40.408Z,2.33
2023-05-19T12:56:53.192Z,2.50
2023-05-19T12:58:56.047Z,2.40
2023-05-19T13:01:00.337Z,2.58
2023-05-19T13:03:05.274Z,2.65
2023-05-19T13:05:08.478Z,2.60
2023-05-19T13:07:12.602Z,2.25
2023-05-19T13:09:17.070Z,3.05
2023-05-19T13:11:19.936Z,2.45
2023-05-19T13:13:22.519Z,2.50
2023-05-19T13:15:26.182Z,2.35
2023-05-19T13:17:28.910Z,3.13
2023-05-19T13:19:31.603Z,2.53
2023-05-19T13:21:34.517Z,2.50
2023-05-19T13:23:38.470Z,2.67
2023-05-19T13:25:41.539Z,2.47
2023-05-19T13:27:46.087Z,2.08
2023-05-19T13:29:49.017Z,1.95
2023-05-19T13:31:51.747Z,2.58
2023-05-19T13:33:54.433Z,2.30
2023-05-19T13:35:57.145Z,2.25
2023-05-19T13:37:59.774Z,2.30
2023-05-19T13:40:03.771Z,2.88
2023-05-19T13:42:07.142Z,2.63
2023-05-19T13:44:09.969Z,2.55
2023-05-19T13:46:12.815Z,2.50
2023-05-19T13:48:15.734Z,2.55
2023-05-19T13:50:18.553Z,4.03
2023-05-19T13:52:21.930Z,3.30
2023-05-19T13:54:24.582Z,2.42
2023-05-19T13:56:28.736Z,7.00
2023-05-19T13:58:31.857Z,2.67
2023-05-19T14:00:36.223Z,2.97
2023-05-19T14:02:39.479Z,2.67
2023-05-19T14:04:42.618Z,2.20
2023-05-19T14:06:45.356Z,2.20
2023-05-19T14:08:48.093Z,2.35
2023-05-19T14:10:51.770Z,1.98
2023-05-19T14:15:11.708Z,2.47
2023-05-19T14:17:14.457Z,2.85
2023-05-19T14:19:17.254Z,2.20
2023-05-19T14:21:20.031Z,2.30
2023-05-19T14:23:22.631Z,2.63
2023-05-19T14:25:25.347Z,2.40
2023-05-19T14:27:27.944Z,2.45
2023-05-19T14:29:31.911Z,2.20
2023-05-19T14:31:34.608Z,4.45
2023-05-19T14:33:37.273Z,2.50
2023-05-19T14:35:40.072Z,2.30
2023-05-19T14:37:42.822Z,2.10
2023-05-19T14:39:45.504Z,1.83
2023-05-19T14:41:49.360Z,2.30
2023-05-19T14:43:52.441Z,2.17
2023-05-19T14:45:57.501Z,2.50
2023-05-19T14:48:00.227Z,2.20
2023-05-19T14:50:03.140Z,2.58
2023-05-19T14:52:06.334Z,2.30
2023-05-19T14:54:08.971Z,2.30
2023-05-19T14:56:11.926Z,2.45
2023-05-19T14:58:27.636Z,2.33
2023-05-19T15:00:32.248Z,2.25
2023-05-19T15:02:36.470Z,2.35
2023-05-19T15:04:39.154Z,2.33
2023-05-19T15:06:41.789Z,2.40
2023-05-19T15:08:45.553Z,2.33
2023-05-19T15:10:49.516Z,2.60
2023-05-19T15:12:52.695Z,2.45
2023-05-19T15:14:55.397Z,2.80
2023-05-19T15:16:58.385Z,2.55
2023-05-19T15:19:02.620Z,2.55
2023-05-19T15:21:05.440Z,2.30
2023-05-19T15:23:08.210Z,2.40
2023-05-19T15:25:11.351Z,2.30
2023-05-19T15:27:14.067Z,2.40
2023-05-19T15:29:16.794Z,2.40
2023-05-19T15:31:19.437Z,2.40
2023-05-19T15:33:22.062Z,2.25
2023-05-19T15:35:26.376Z,2.78
2023-05-19T15:37:29.123Z,2.00
2023-05-19T15:39:33.546Z,2.00
2023-05-19T15:41:36.190Z,2.15
2023-05-19T15:43:38.894Z,2.00
2023-05-19T15:45:41.551Z,4.57
2023-05-19T15:47:44.394Z,4.55
2023-05-19T15:49:47.130Z,2.50
2023-05-19T15:51:51.294Z,2.80
2023-05-19T15:53:54.033Z,2.50
2023-05-19T15:55:57.314Z,2.40
2023-05-19T15:58:00.005Z,2.38
2023-05-19T16:00:02.645Z,2.00
2023-05-19T16:02:05.443Z,2.13
2023-05-19T16:04:08.287Z,2.13
2023-05-19T16:06:10.995Z,2.00
2023-05-19T16:08:15.175Z,1.88
2023-05-19T16:10:17.913Z,2.20
2023-05-19T16:12:20.577Z,2.50
2023-05-19T16:14:24.480Z,1.98
2023-05-19T16:16:27.424Z,2.60
2023-05-19T16:18:30.154Z,2.20
2023-05-19T16:20:32.937Z,2.65
2023-05-19T16:22:35.898Z,2.00
2023-05-19T16:24:39.910Z,2.00
2023-05-19T16:26:42.631Z,1.90
2023-05-19T16:28:45.263Z,1.80
2023-05-19T16:30:48.067Z,2.08
2023-05-19T16:32:50.755Z,2.00
2023-05-19T16:34:53.529Z,1.90
2023-05-19T16:36:56.276Z,2.22
2023-05-19T16:38:59.047Z,2.80
2023-05-19T16:41:04.412Z,2.72
2023-05-19T16:43:07.086Z,2.50
2023-05-19T16:45:10.262Z,2.00
2023-05-19T16:47:13.056Z,6.22
2023-05-19T16:49:16.053Z,3.30
2023-05-19T16:51:18.805Z,3.00
2023-05-19T16:53:21.501Z,2.15
2023-05-19T16:55:25.406Z,2.42
2023-05-19T16:57:29.781Z,2.17
2023-05-19T16:59:32.422Z,2.50
2023-05-19T17:01:35.033Z,2.10
2023-05-19T17:03:37.875Z,2.05
2023-05-19T17:05:43.379Z,2.28
2023-05-19T17:07:46.072Z,1.70
2023-05-19T17:09:49.174Z,1.70
2023-05-19T17:11:52.557Z,1.98
2023-05-19T17:13:56.611Z,2.22
2023-05-19T17:15:59.215Z,1.90
2023-05-19T17:18:01.859Z,1.90
2023-05-19T17:20:05.335Z,1.90
2023-05-19T17:22:08.132Z,2.00
2023-05-19T17:24:11.017Z,2.15
2023-05-19T17:26:13.781Z,2.33
2023-05-19T17:28:16.558Z,1.98
2023-05-19T17:30:20.681Z,1.80
2023-05-19T17:32:28.192Z,2.20
2023-05-19T17:34:31.216Z,1.95
2023-05-19T17:36:33.868Z,2.00
2023-05-19T17:38:40.144Z,2.03
2023-05-19T17:40:42.884Z,2.10
2023-05-19T17:42:45.542Z,2.00
2023-05-19T17:44:48.296Z,1.63
2023-05-19T17:46:52.331Z,2.05
2023-05-19T17:48:55.030Z,2.20
2023-05-19T17:50:57.753Z,2.10
2023-05-19T17:53:00.786Z,2.10
2023-05-19T17:55:03.747Z,2.30
2023-05-19T17:57:08.844Z,2.17
2023-05-19T17:59:11.935Z,2.20
2023-05-19T18:01:14.939Z,2.00
2023-05-19T18:03:19.337Z,1.90
2023-05-19T18:05:22.750Z,1.70
2023-05-19T18:07:26.197Z,2.20
2023-05-19T18:09:29.423Z,2.30
2023-05-19T18:11:32.227Z,2.20
2023-05-19T18:13:35.297Z,2.10
2023-05-19T18:15:38.035Z,2.08
2023-05-19T18:17:40.877Z,2.30
2023-05-19T18:19:44.966Z,2.42
2023-05-19T18:21:47.605Z,2.00
2023-05-19T18:23:50.196Z,2.20
2023-05-19T18:25:53.271Z,2.20
2023-05-19T18:27:56.532Z,2.30
2023-05-19T18:29:59.177Z,2.50
2023-05-19T18:32:02.230Z,2.65
2023-05-19T18:34:05.003Z,2.60
2023-05-19T18:36:09.253Z,2.05
2023-05-19T18:38:11.882Z,2.22
2023-05-19T18:40:14.548Z,2.20
2023-05-19T18:42:17.198Z,2.10
2023-05-19T18:44:19.837Z,2.10
2023-05-19T18:46:22.638Z,1.92
2023-05-19T18:48:26.254Z,2.08
2023-05-19T18:50:28.943Z,2.05
2023-05-19T18:52:33.122Z,2.50
2023-05-19T18:54:35.901Z,2.15
2023-05-19T18:56:38.601Z,2.05
2023-05-19T18:58:41.236Z,2.47
2023-05-19T19:00:43.973Z,2.58
2023-05-19T19:02:47.117Z,2.33
2023-05-19T19:04:49.838Z,2.40
2023-05-19T19:06:52.515Z,2.53
2023-05-19T19:08:56.561Z,2.20
2023-05-19T19:11:01.110Z,2.28
2023-05-19T19:13:03.854Z,2.50
2023-05-19T19:15:07.061Z,2.38
2023-05-19T19:17:09.830Z,2.35
2023-05-19T19:19:12.839Z,1.90
2023-05-19T19:21:15.637Z,2.83
2023-05-19T19:23:18.247Z,2.20
2023-05-19T19:25:23.652Z,2.40
2023-05-19T19:27:30.854Z,2.33
2023-05-19T19:29:33.553Z,2.03
2023-05-19T19:31:36.163Z,2.10
2023-05-19T19:33:39.011Z,2.30
2023-05-19T19:35:41.713Z,2.55
2023-05-19T19:37:44.358Z,2.33
2023-05-19T19:39:46.985Z,2.40
2023-05-19T19:41:51.192Z,2.20
2023-05-19T19:43:54.246Z,2.10
2023-05-19T19:46:00.838Z,2.17
2023-05-19T19:48:03.695Z,2.30
2023-05-19T19:50:07.387Z,2.40
2023-05-19T19:52:10.052Z,2.15
2023-05-19T19:54:12.672Z,2.00
2023-05-19T19:56:15.375Z,2.40
2023-05-19T19:58:19.373Z,2.10
2023-05-19T20:00:22.164Z,2.13
2023-05-19T20:02:24.794Z,2.53
2023-05-19T20:04:27.776Z,2.08
2023-05-19T20:06:31.065Z,2.15
2023-05-19T20:08:33.699Z,2.25
2023-05-19T20:10:36.586Z,2.35
2023-05-19T20:12:39.349Z,2.28
2023-05-19T20:14:43.409Z,2.38
2023-05-19T20:16:46.719Z,2.08
2023-05-19T20:18:49.529Z,2.30
2023-05-19T20:20:52.351Z,2.38
2023-05-19T20:22:54.947Z,2.33
2023-05-19T20:24:57.598Z,2.20
2023-05-19T20:27:00.196Z,2.67
2023-05-19T20:29:02.808Z,1.92
2023-05-19T20:31:07.367Z,2.17
2023-05-19T20:33:11.819Z,2.20
2023-05-19T20:35:14.802Z,2.45
2023-05-19T20:37:17.469Z,2.20
2023-05-19T20:39:20.223Z,2.60
2023-05-19T20:41:23.602Z,2.08
2023-05-19T20:43:26.272Z,2.15
2023-05-19T20:45:29.015Z,2.58
2023-05-19T20:47:33.065Z,2.17
2023-05-19T20:49:35.933Z,2.40
2023-05-19T20:51:41.848Z,2.05
2023-05-19T20:53:44.501Z,2.30
2023-05-19T20:55:47.507Z,2.45
2023-05-19T20:57:50.164Z,2.70
2023-05-19T20:59:52.799Z,2.13
2023-05-19T21:01:55.577Z,2.63
2023-05-19T21:03:59.577Z,2.70
2023-05-19T21:06:02.414Z,2.60
2023-05-19T21:08:05.186Z,2.63
2023-05-19T21:10:08.556Z,2.85
2023-05-19T21:12:11.324Z,2.33
2023-05-19T21:14:14.062Z,2.80
2023-05-19T21:16:16.740Z,2.60
2023-05-19T21:18:19.611Z,2.80
2023-05-19T21:20:23.781Z,2.63
2023-05-19T21:22:26.559Z,2.63
2023-05-19T21:24:29.229Z,2.50
2023-05-19T21:26:31.888Z,3.17
2023-05-19T21:28:34.564Z,2.28
2023-05-19T21:30:37.192Z,2.80
2023-05-19T21:32:39.930Z,2.53
2023-05-19T21:34:42.648Z,2.60
2023-05-19T21:36:48.167Z,2.75
2023-05-19T21:38:52.126Z,2.58
2023-05-19T21:40:55.502Z,3.05
2023-05-19T21:42:58.156Z,3.00
2023-05-19T21:45:04.468Z,2.90
2023-05-19T21:47:07.080Z,2.55
2023-05-19T21:49:09.993Z,3.00
2023-05-19T21:51:12.788Z,3.15
2023-05-19T21:53:16.824Z,2.97
2023-05-19T21:55:20.123Z,2.67
2023-05-19T21:57:22.875Z,3.08
2023-05-19T21:59:26.324Z,2.85
2023-05-19T22:01:29.035Z,3.10
2023-05-19T22:03:31.749Z,2.70
2023-05-19T22:05:35.483Z,3.05
2023-05-19T22:07:38.439Z,3.08
2023-05-19T22:09:42.562Z,2.58
2023-05-19T22:11:45.192Z,3.33
2023-05-19T22:13:48.184Z,3.03
2023-05-19T22:15:50.953Z,3.03
2023-05-19T22:17:53.719Z,3.22
2023-05-19T22:19:56.405Z,3.33
2023-05-19T22:22:09.863Z,3.00
2023-05-19T22:24:18.434Z,3.05
2023-05-19T22:26:22.803Z,3.65
2023-05-19T22:28:25.408Z,3.30
2023-05-19T22:30:28.087Z,3.05
2023-05-19T22:32:31.093Z,2.90
2023-05-19T22:34:33.844Z,3.13
2023-05-19T22:36:36.520Z,2.92
2023-05-19T22:38:39.284Z,3.13
2023-05-19T22:40:42.010Z,3.28
2023-05-19T22:42:46.181Z,3.58
2023-05-19T22:44:48.979Z,3.30
2023-05-19T22:46:51.621Z,3.17
2023-05-19T22:48:54.341Z,3.28
2023-05-19T22:50:56.996Z,3.47
2023-05-19T22:52:59.670Z,3.03
2023-05-19T22:55:02.444Z,3.25
2023-05-19T22:57:05.578Z,3.33
2023-05-19T22:59:09.590Z,3.00
2023-05-19T23:01:12.319Z,3.05
2023-05-19T23:03:15.044Z,2.80
2023-05-19T23:05:17.899Z,3.38
2023-05-19T23:07:20.672Z,3.17
2023-05-19T23:09:23.319Z,2.90
2023-05-19T23:11:26.111Z,2.97
2023-05-19T23:13:28.827Z,3.47
2023-05-19T23:15:33.173Z,2.95
2023-05-19T23:17:35.991Z,3.08
2023-05-19T23:19:38.686Z,4.10
2023-05-19T23:21:41.900Z,3.40
2023-05-19T23:23:44.727Z,2.92
2023-05-19T23:25:47.479Z,2.97
2023-05-19T23:27:50.167Z,2.67
2023-05-19T23:29:52.773Z,2.65
2023-05-19T23:31:56.772Z,3.25
2023-05-19T23:33:59.489Z,3.30
2023-05-19T23:36:06.301Z,3.22
2023-05-19T23:38:09.533Z,3.63
2023-05-19T23:40:12.716Z,2.95
2023-05-19T23:42:15.445Z,3.00
2023-05-19T23:44:19.000Z,3.00
2023-05-19T23:46:21.725Z,3.40
2023-05-19T23:48:26.085Z,3.30
2023-05-19T23:50:28.797Z,3.55
2023-05-19T23:52:32.793Z,3.13
2023-05-19T23:54:35.614Z,3.20
2023-05-19T23:56:38.341Z,3.13
2023-05-19T23:58:41.020Z,3.05
